ETNG

Geilenkirchen Airport

Germany
METAR ETNG 220050Z 06009KT CAVOK M02/M05 Q1023
Observed Flight Rules
Feb-22 @ 00:50 UTC (4 hours ago) Visual Flight Rules
Wind Visibility Clouds
60° at 9 knots 10,000+ meters
  • Clear skies
Temperatures Readings
Current -2°C / 28°F
Dewpoint -5°C / 23°F
Humidity 80%
Altimeter 30.21" Hg
Pressure 1023 hPa
Elevation 98
METAR ETNG 220050Z 06009KT CAVOK M02/M05 Q1023
Observed Flight Rules
Feb-22 @ 00:50 UTC
(4 hours ago)
VFR
Wind Visibility
60° at 9 knots 10,000+ meters
Clouds
  • Clear skies
Temperature Dewpoint
-2°C / 28°F -5°C / 23°F
Humidity Altimeter Pressure
80% 30.21" Hg 1023 hPa